Главная страница
METAR-TAF:

METAR-TAF

Аэропорты :

NWS Office

Понпеи, Микронезия

широта: 06-58N, долгота: 158-13E, высота над уровнем моря: 39 м

Текущие метеонаблюдения

Эта сводка был подготовлена 1 час и 18 минут назад, в 08:55 UTC
Ветер 3 Узел от восточный
Температура 25°C
Влажность 94%
Давление 1012 hPa
Видимость: 16.1 км
Рассеянная облачность на высоте 1600 фута, Кучево-дождевые.
Сплошная облачность на высоте 11000 фута
ливневые дожди

METAR: PTTP 240855Z 10003KT 10SM SHRA BKN016CB OVC110 25/24 A2987 RMK TSB40 E MOV W CB ALQDS MOV W SLP105 60045 T02580249

Время: 21:13 (10:13 UTC)


TAF: отсутствует

Метеонаблюдения и прогнозы для более 4000 аэропортов (сводки METAR и TAF).

Имеющиеся станции представлены на карте желтыми и красными точками.

Чтобы увидеть название станции, наведите на нее мышь.

Затем щелкните, чтобы увидеть метеонаблюдения и метеопрогнозы.

Управление картой: чтобы увеличить масштаб, щелкните зеленые кнопки с черным крестиком; чтобы уменьшить масштаб, щелкните зеленую кнопку с тире; для просмотра соседних карт щелкайте зеленые стрелки.


METAR-TAF: